createdAt,value
2019-05-18T00:01:06.802Z,10.90
2019-05-18T00:03:34.661Z,10.90
2019-05-18T00:06:02.545Z,10.90
2019-05-18T00:08:30.316Z,10.90
2019-05-18T00:10:58.175Z,10.80
2019-05-18T00:13:26.080Z,10.80
2019-05-18T00:15:53.915Z,10.80
2019-05-18T00:18:21.684Z,10.80
2019-05-18T00:20:49.510Z,10.70
2019-05-18T00:23:17.310Z,10.70
2019-05-18T00:25:45.220Z,10.60
2019-05-18T00:28:13.018Z,10.60
2019-05-18T00:30:40.889Z,10.70
2019-05-18T00:33:08.704Z,10.60
2019-05-18T00:35:36.545Z,10.60
2019-05-18T00:38:04.313Z,10.60
2019-05-18T00:40:32.100Z,10.50
2019-05-18T00:42:59.942Z,10.50
2019-05-18T00:45:27.797Z,10.50
2019-05-18T00:47:55.667Z,10.50
2019-05-18T00:50:23.468Z,10.50
2019-05-18T00:52:51.300Z,10.50
2019-05-18T00:55:19.222Z,10.40
2019-05-18T00:57:49.071Z,10.50
2019-05-18T01:00:17.454Z,10.40
2019-05-18T01:02:45.308Z,10.40
2019-05-18T01:05:13.178Z,10.30
2019-05-18T01:07:40.993Z,10.30
2019-05-18T01:10:09.496Z,10.30
2019-05-18T01:12:37.283Z,10.30
2019-05-18T01:15:06.258Z,10.20
2019-05-18T01:17:34.053Z,10.20
2019-05-18T01:20:01.827Z,10.20
2019-05-18T01:22:29.602Z,10.20
2019-05-18T01:24:57.378Z,10.20
2019-05-18T01:27:25.214Z,10.20
2019-05-18T01:29:53.038Z,10.10
2019-05-18T01:32:20.812Z,10.10
2019-05-18T01:34:48.575Z,10.10
2019-05-18T01:37:16.382Z,10.10
2019-05-18T01:39:44.158Z,10.00
2019-05-18T01:42:11.954Z,10.10
2019-05-18T01:44:39.753Z,10.10
2019-05-18T01:47:07.525Z,10.10
2019-05-18T01:49:35.538Z,10.10
2019-05-18T01:52:03.439Z,10.00
2019-05-18T01:54:31.481Z,10.10
2019-05-18T01:57:01.371Z,10.10
2019-05-18T01:59:28.973Z,10.00
2019-05-18T02:01:56.735Z,10.00
2019-05-18T02:04:24.522Z,10.00
2019-05-18T02:06:52.679Z,10.00
2019-05-18T02:09:20.490Z,10.00
2019-05-18T02:11:48.339Z,9.90
2019-05-18T02:14:16.183Z,9.90
2019-05-18T02:16:43.964Z,9.90
2019-05-18T02:19:11.743Z,9.90
2019-05-18T02:21:39.622Z,9.90
2019-05-18T02:24:07.433Z,9.80
2019-05-18T02:26:35.197Z,9.80
2019-05-18T02:29:03.005Z,9.80
2019-05-18T02:31:30.814Z,9.80
2019-05-18T02:33:58.650Z,9.80
2019-05-18T02:36:26.401Z,9.80
2019-05-18T02:38:54.188Z,9.70
2019-05-18T02:41:21.978Z,9.70
2019-05-18T02:43:49.782Z,9.70
2019-05-18T02:46:17.578Z,9.70
2019-05-18T02:48:50.158Z,9.70
2019-05-18T02:51:15.020Z,9.70
2019-05-18T02:53:42.825Z,9.60
2019-05-18T02:56:10.606Z,9.70
2019-05-18T02:58:38.418Z,9.60
2019-05-18T03:01:06.333Z,9.60
2019-05-18T03:03:34.171Z,9.60
2019-05-18T03:06:02.125Z,9.60
2019-05-18T03:08:29.940Z,9.60
2019-05-18T03:10:57.683Z,9.60
2019-05-18T03:13:25.596Z,9.50
2019-05-18T03:15:53.387Z,9.50
2019-05-18T03:18:21.139Z,9.50
2019-05-18T03:20:48.972Z,9.40
2019-05-18T03:23:16.763Z,9.50
2019-05-18T03:25:44.610Z,9.50
2019-05-18T03:28:12.394Z,9.50
2019-05-18T03:30:40.178Z,9.50
2019-05-18T03:33:07.957Z,9.50
2019-05-18T03:35:35.835Z,9.50
2019-05-18T03:38:03.604Z,9.50
2019-05-18T03:40:31.711Z,9.50
2019-05-18T03:42:59.571Z,9.60
2019-05-18T03:45:27.606Z,9.60
2019-05-18T03:47:55.394Z,9.60
2019-05-18T03:50:23.190Z,9.60
2019-05-18T03:52:51.015Z,9.70
2019-05-18T03:55:18.801Z,9.60
2019-05-18T03:57:46.613Z,9.70
2019-05-18T04:00:14.795Z,9.70
2019-05-18T04:02:42.545Z,9.70
2019-05-18T04:05:10.575Z,9.70
2019-05-18T04:07:38.385Z,9.70
2019-05-18T04:10:06.642Z,9.80
2019-05-18T04:12:34.477Z,9.80
2019-05-18T04:15:02.396Z,9.90
2019-05-18T04:17:30.319Z,9.90
2019-05-18T04:19:58.105Z,9.80
2019-05-18T04:22:25.895Z,9.90
2019-05-18T04:24:53.712Z,9.90
2019-05-18T04:27:21.529Z,9.90
2019-05-18T04:29:49.334Z,10.00
2019-05-18T04:32:17.143Z,10.00
2019-05-18T04:34:44.949Z,10.00
2019-05-18T04:37:12.788Z,10.00
2019-05-18T04:39:40.562Z,10.10
2019-05-18T04:42:08.353Z,10.10
2019-05-18T04:44:36.154Z,10.10
2019-05-18T04:47:03.914Z,10.20
2019-05-18T04:49:31.720Z,10.20
2019-05-18T04:51:59.496Z,10.30
2019-05-18T04:54:27.257Z,10.30
2019-05-18T04:56:55.093Z,10.40
2019-05-18T04:59:22.920Z,10.50
2019-05-18T05:01:50.992Z,10.60
2019-05-18T05:04:18.866Z,10.60
2019-05-18T05:06:46.661Z,10.70
2019-05-18T05:09:14.447Z,10.80
2019-05-18T05:11:42.287Z,10.90
2019-05-18T05:14:10.072Z,11.00
2019-05-18T05:16:37.922Z,11.20
2019-05-18T05:19:08.656Z,11.50
2019-05-18T05:21:35.496Z,11.70
2019-05-18T05:24:03.267Z,12.00
2019-05-18T05:26:31.097Z,12.20
2019-05-18T05:28:59.676Z,12.50
2019-05-18T05:31:27.498Z,12.80
2019-05-18T05:33:55.289Z,13.10
2019-05-18T05:36:23.099Z,13.50
2019-05-18T05:38:50.883Z,13.60
2019-05-18T05:41:18.732Z,13.80
2019-05-18T05:43:46.537Z,14.10
2019-05-18T05:46:14.315Z,14.40
2019-05-18T05:48:42.114Z,14.50
2019-05-18T05:51:10.131Z,14.80
2019-05-18T05:53:37.957Z,14.90
2019-05-18T05:56:05.757Z,15.40
2019-05-18T05:58:33.557Z,15.50
2019-05-18T06:01:01.320Z,15.70
2019-05-18T06:03:29.143Z,16.00
2019-05-18T06:05:56.951Z,16.20
2019-05-18T06:08:24.862Z,16.60
2019-05-18T06:10:52.667Z,16.70
2019-05-18T06:13:20.483Z,16.80
2019-05-18T06:15:48.282Z,17.30
2019-05-18T06:18:16.125Z,17.80
2019-05-18T06:20:51.658Z,18.40
2019-05-18T06:23:13.735Z,19.10
2019-05-18T06:25:41.608Z,19.20
2019-05-18T06:28:09.462Z,19.40
2019-05-18T06:30:37.331Z,19.60
2019-05-18T06:33:05.171Z,20.20
2019-05-18T06:35:33.001Z,20.50
2019-05-18T06:38:00.813Z,20.30
2019-05-18T06:40:28.607Z,20.80
2019-05-18T06:42:56.495Z,20.60
2019-05-18T06:45:24.332Z,20.80
2019-05-18T06:47:52.181Z,21.30
2019-05-18T06:50:28.494Z,22.20
2019-05-18T06:52:56.509Z,22.20
2019-05-18T06:55:25.407Z,22.70
2019-05-18T06:57:59.000Z,23.00
2019-05-18T07:00:26.873Z,22.80
2019-05-18T07:02:54.807Z,22.90
2019-05-18T07:05:22.777Z,22.90
2019-05-18T07:07:50.591Z,23.50
2019-05-18T07:10:18.535Z,23.80
2019-05-18T07:12:46.488Z,24.00
2019-05-18T07:15:15.670Z,24.40
2019-05-18T07:17:43.677Z,23.50
2019-05-18T07:20:11.901Z,23.40
2019-05-18T07:22:39.717Z,23.90
2019-05-18T07:25:08.313Z,24.40
2019-05-18T07:27:36.134Z,25.10
2019-05-18T07:30:04.552Z,25.70
2019-05-18T07:32:32.346Z,26.20
2019-05-18T07:35:00.290Z,25.90
2019-05-18T07:37:28.087Z,25.70
2019-05-18T07:39:56.025Z,26.70
2019-05-18T07:42:23.832Z,27.90
2019-05-18T07:44:51.655Z,27.60
2019-05-18T07:47:19.445Z,27.40
2019-05-18T07:52:17.278Z,28.30
2019-05-18T07:54:45.007Z,26.50
2019-05-18T07:57:12.862Z,27.10
2019-05-18T07:59:40.719Z,27.60
2019-05-18T08:02:08.526Z,27.10
2019-05-18T08:04:39.708Z,26.80
2019-05-18T08:07:06.247Z,26.60
2019-05-18T08:09:34.017Z,26.90
2019-05-18T08:12:01.822Z,27.40
2019-05-18T08:14:29.807Z,28.90
2019-05-18T08:16:57.605Z,29.40
2019-05-18T08:19:25.416Z,30.40
2019-05-18T08:21:53.857Z,32.10
2019-05-18T08:24:21.723Z,31.80
2019-05-18T08:26:49.679Z,33.00
2019-05-18T08:29:17.629Z,30.30
2019-05-18T08:31:45.459Z,30.60
2019-05-18T08:34:13.492Z,31.30
2019-05-18T08:36:41.535Z,31.20
2019-05-18T08:39:09.363Z,30.40
2019-05-18T08:41:38.018Z,30.90
2019-05-18T08:44:05.790Z,31.60
2019-05-18T08:46:33.794Z,31.30
2019-05-18T08:49:01.845Z,29.30
2019-05-18T08:51:29.714Z,29.00
2019-05-18T08:53:57.517Z,29.30
2019-05-18T08:56:25.321Z,28.70
2019-05-18T08:58:53.098Z,27.30
2019-05-18T09:01:20.927Z,27.80
2019-05-18T09:03:48.726Z,28.50
2019-05-18T09:06:16.586Z,30.40
2019-05-18T09:08:44.384Z,32.20
2019-05-18T09:11:12.352Z,31.80
2019-05-18T09:13:40.131Z,30.60
2019-05-18T09:16:08.132Z,29.20
2019-05-18T09:18:35.945Z,29.80
2019-05-18T09:21:03.755Z,31.40
2019-05-18T09:23:31.530Z,32.40
2019-05-18T09:25:59.618Z,32.60
2019-05-18T09:28:27.504Z,33.30
2019-05-18T09:30:55.510Z,34.60
2019-05-18T09:33:23.303Z,34.90
2019-05-18T09:35:51.312Z,33.80
2019-05-18T09:38:19.083Z,34.10
2019-05-18T09:40:46.957Z,34.80
2019-05-18T09:43:14.846Z,33.90
2019-05-18T09:45:42.810Z,34.10
2019-05-18T09:48:10.621Z,35.30
2019-05-18T09:50:38.634Z,35.10
2019-05-18T09:53:06.474Z,35.10
2019-05-18T09:55:34.512Z,35.50
2019-05-18T09:58:02.459Z,36.60
2019-05-18T10:00:37.794Z,37.60
2019-05-18T10:03:00.416Z,36.50
2019-05-18T10:05:28.366Z,34.10
2019-05-18T10:07:56.539Z,31.90
2019-05-18T10:10:24.343Z,30.50
2019-05-18T10:12:52.299Z,31.30
2019-05-18T10:15:20.452Z,31.70
2019-05-18T10:17:48.459Z,33.50
2019-05-18T10:20:16.656Z,35.20
2019-05-18T10:22:55.435Z,35.80
2019-05-18T10:25:14.620Z,36.50
2019-05-18T10:27:42.480Z,35.40
2019-05-18T10:30:12.006Z,36.70
2019-05-18T10:32:39.801Z,37.50
2019-05-18T10:35:08.125Z,38.80
2019-05-18T10:37:35.943Z,37.50
2019-05-18T10:40:04.433Z,38.90
2019-05-18T10:42:32.405Z,39.10
2019-05-18T10:45:00.200Z,39.70
2019-05-18T10:47:28.256Z,39.90
2019-05-18T10:49:56.074Z,39.10
2019-05-18T10:52:24.065Z,38.70
2019-05-18T10:54:51.855Z,39.30
2019-05-18T10:57:19.672Z,37.40
2019-05-18T10:59:47.485Z,38.40
2019-05-18T11:02:15.259Z,39.10
2019-05-18T11:04:43.088Z,40.20
2019-05-18T11:07:11.075Z,39.50
2019-05-18T11:09:38.867Z,40.20
2019-05-18T11:12:06.942Z,41.00
2019-05-18T11:14:34.819Z,41.30
2019-05-18T11:17:02.895Z,41.10
2019-05-18T11:19:30.686Z,41.80
2019-05-18T11:21:58.504Z,42.00
2019-05-18T11:24:26.343Z,41.90
2019-05-18T11:26:54.366Z,42.00
2019-05-18T11:29:23.820Z,40.30
2019-05-18T11:31:51.941Z,39.50
2019-05-18T11:34:19.758Z,37.50
2019-05-18T11:36:47.741Z,38.40
2019-05-18T11:39:15.625Z,38.70
2019-05-18T11:41:43.412Z,38.70
2019-05-18T11:44:11.364Z,39.50
2019-05-18T11:46:39.412Z,39.30
2019-05-18T11:49:07.246Z,40.80
2019-05-18T11:51:35.039Z,41.80
2019-05-18T11:54:02.920Z,41.90
2019-05-18T11:56:30.794Z,40.40
2019-05-18T11:58:58.839Z,39.80
2019-05-18T12:01:26.665Z,40.40
2019-05-18T12:03:54.601Z,40.20
2019-05-18T12:06:22.431Z,41.10
2019-05-18T12:08:50.235Z,41.20
2019-05-18T12:11:18.022Z,41.20
2019-05-18T12:13:45.980Z,41.50
2019-05-18T12:16:17.185Z,41.80
2019-05-18T12:18:43.480Z,40.70
2019-05-18T12:21:11.302Z,40.60
2019-05-18T12:23:39.073Z,41.10
2019-05-18T12:26:06.907Z,40.50
2019-05-18T12:28:34.723Z,39.90
2019-05-18T12:31:02.518Z,40.30
2019-05-18T12:33:30.339Z,41.20
2019-05-18T12:35:58.137Z,40.80
2019-05-18T12:38:25.963Z,40.30
2019-05-18T12:40:54.098Z,40.20
2019-05-18T12:43:22.012Z,41.00
2019-05-18T12:45:49.822Z,41.60
2019-05-18T12:48:17.775Z,41.10
2019-05-18T12:50:45.776Z,37.00
2019-05-18T12:53:13.592Z,35.20
2019-05-18T12:55:41.648Z,33.20
2019-05-18T12:58:09.462Z,32.90
2019-05-18T13:00:37.423Z,34.00
2019-05-18T13:03:05.382Z,34.90
2019-05-18T13:05:33.370Z,36.10
2019-05-18T13:08:01.313Z,37.00
2019-05-18T13:10:29.157Z,37.50
2019-05-18T13:12:57.155Z,38.00
2019-05-18T13:15:25.336Z,38.40
2019-05-18T13:17:53.146Z,36.90
2019-05-18T13:20:21.293Z,35.90
2019-05-18T13:22:49.117Z,35.60
2019-05-18T13:25:17.619Z,34.40
2019-05-18T13:27:45.550Z,34.40
2019-05-18T13:30:19.394Z,34.40
2019-05-18T13:32:45.157Z,34.70
2019-05-18T13:35:16.560Z,35.70
2019-05-18T13:37:44.393Z,36.10
2019-05-18T13:40:12.908Z,36.40
2019-05-18T13:42:40.728Z,36.50
2019-05-18T13:45:09.967Z,37.10
2019-05-18T13:47:37.808Z,37.40
2019-05-18T13:50:07.235Z,37.10
2019-05-18T13:52:35.213Z,35.90
2019-05-18T13:55:04.995Z,34.50
2019-05-18T13:57:33.099Z,33.10
2019-05-18T14:00:01.045Z,31.10
2019-05-18T14:02:28.818Z,30.60
2019-05-18T14:04:56.761Z,29.80
2019-05-18T14:07:24.572Z,29.10
2019-05-18T14:09:52.367Z,28.50
2019-05-18T14:12:20.156Z,28.20
2019-05-18T14:14:47.907Z,27.50
2019-05-18T14:17:15.839Z,27.10
2019-05-18T14:19:44.168Z,26.90
2019-05-18T14:22:11.991Z,26.70
2019-05-18T14:24:39.806Z,26.50
2019-05-18T14:27:07.771Z,26.10
2019-05-18T14:29:35.744Z,25.80
2019-05-18T14:32:03.731Z,25.70
2019-05-18T14:34:31.540Z,25.70
2019-05-18T14:36:59.579Z,25.60
2019-05-18T14:39:27.440Z,25.20
2019-05-18T14:41:55.244Z,25.20
2019-05-18T14:44:23.289Z,25.00
2019-05-18T14:46:51.066Z,24.80
2019-05-18T14:49:19.054Z,24.50
2019-05-18T14:51:46.857Z,24.10
2019-05-18T14:54:14.700Z,24.10
2019-05-18T14:56:42.680Z,24.20
2019-05-18T14:59:10.547Z,24.20
2019-05-18T15:01:38.497Z,24.30
2019-05-18T15:04:06.340Z,24.40
2019-05-18T15:06:35.584Z,24.50
2019-05-18T15:09:05.229Z,24.60
2019-05-18T15:11:33.186Z,24.70
2019-05-18T15:14:01.043Z,24.80
2019-05-18T15:16:29.025Z,24.70
2019-05-18T15:18:56.816Z,24.60
2019-05-18T15:21:24.755Z,24.50
2019-05-18T15:23:52.558Z,24.70
2019-05-18T15:26:20.465Z,24.70
2019-05-18T15:28:48.269Z,24.60
2019-05-18T15:31:16.460Z,24.60
2019-05-18T15:33:44.277Z,24.50
2019-05-18T15:36:12.062Z,24.60
2019-05-18T15:38:39.865Z,24.60
2019-05-18T15:41:07.685Z,24.60
2019-05-18T15:43:35.546Z,24.50
2019-05-18T15:46:03.516Z,24.30
2019-05-18T15:48:31.359Z,24.20
2019-05-18T15:50:59.446Z,24.10
2019-05-18T15:53:27.364Z,24.00
2019-05-18T15:56:05.424Z,23.80
2019-05-18T15:58:25.205Z,23.70
2019-05-18T16:00:53.085Z,23.60
2019-05-18T16:03:21.229Z,23.30
2019-05-18T16:05:49.487Z,23.20
2019-05-18T16:08:17.431Z,23.10
2019-05-18T16:10:45.457Z,23.10
2019-05-18T16:13:13.542Z,23.10
2019-05-18T16:15:41.551Z,23.10
2019-05-18T16:18:09.329Z,23.20
2019-05-18T16:20:37.308Z,23.10
2019-05-18T16:23:05.261Z,23.10
2019-05-18T16:25:33.117Z,23.10
2019-05-18T16:28:01.111Z,23.00
2019-05-18T16:30:29.023Z,23.00
2019-05-18T16:32:57.056Z,23.10
2019-05-18T16:35:26.252Z,23.10
2019-05-18T16:37:56.913Z,23.00
2019-05-18T16:40:24.709Z,23.00
2019-05-18T16:42:52.531Z,23.10
2019-05-18T16:45:20.514Z,23.10
2019-05-18T16:47:51.077Z,23.00
2019-05-18T16:50:19.097Z,23.00
2019-05-18T16:52:46.906Z,22.90
2019-05-18T16:55:16.244Z,22.80
2019-05-18T16:57:44.036Z,22.80
2019-05-18T17:00:16.030Z,22.90
2019-05-18T17:02:42.493Z,22.90
2019-05-18T17:05:10.637Z,22.90
2019-05-18T17:07:38.446Z,22.90
2019-05-18T17:10:07.063Z,22.80
2019-05-18T17:12:34.871Z,22.80
2019-05-18T17:15:02.893Z,22.70
2019-05-18T17:17:30.672Z,22.70
2019-05-18T17:19:58.631Z,22.70
2019-05-18T17:22:26.407Z,22.60
2019-05-18T17:24:54.226Z,22.50
2019-05-18T17:27:22.056Z,22.40
2019-05-18T17:29:50.025Z,22.40
2019-05-18T17:32:17.878Z,22.30
2019-05-18T17:34:45.780Z,22.10
2019-05-18T17:37:13.566Z,22.10
2019-05-18T17:39:41.439Z,22.00
2019-05-18T17:42:09.358Z,21.90
2019-05-18T17:44:37.130Z,21.90
2019-05-18T17:47:06.478Z,21.80
2019-05-18T17:49:34.273Z,21.70
2019-05-18T17:52:02.093Z,21.70
2019-05-18T17:54:30.983Z,21.60
2019-05-18T17:57:08.166Z,21.50
2019-05-18T17:59:28.497Z,21.40
2019-05-18T18:01:56.303Z,21.40
2019-05-18T18:04:24.138Z,21.20
2019-05-18T18:06:54.459Z,21.20
2019-05-18T18:09:24.206Z,21.10
2019-05-18T18:11:52.128Z,21.00
2019-05-18T18:14:19.982Z,20.90
2019-05-18T18:16:47.852Z,20.90
2019-05-18T18:19:15.691Z,20.80
2019-05-18T18:21:43.706Z,20.70
2019-05-18T18:24:12.877Z,20.60
2019-05-18T18:26:40.775Z,20.60
2019-05-18T18:29:08.713Z,20.50
2019-05-18T18:31:36.551Z,20.40
2019-05-18T18:34:04.505Z,20.30
2019-05-18T18:36:32.405Z,20.30
2019-05-18T18:39:00.188Z,20.20
2019-05-18T18:41:28.143Z,20.10
2019-05-18T18:43:56.091Z,20.00
2019-05-18T18:46:24.028Z,20.00
2019-05-18T18:48:53.089Z,19.90
2019-05-18T18:51:20.960Z,19.80
2019-05-18T18:53:48.892Z,19.80
2019-05-18T18:56:16.757Z,19.70
2019-05-18T18:58:44.656Z,19.60
2019-05-18T19:01:12.618Z,19.60
2019-05-18T19:03:40.560Z,19.50
2019-05-18T19:06:08.476Z,19.40
2019-05-18T19:08:36.431Z,19.30
2019-05-18T19:11:04.278Z,19.20
2019-05-18T19:13:32.079Z,19.20
2019-05-18T19:16:02.392Z,19.10
2019-05-18T19:18:30.219Z,19.00
2019-05-18T19:20:58.029Z,18.90
2019-05-18T19:23:25.869Z,18.80
2019-05-18T19:25:53.704Z,18.80
2019-05-18T19:28:21.562Z,18.80
2019-05-18T19:30:49.419Z,18.70
2019-05-18T19:33:17.209Z,18.60
2019-05-18T19:35:45.142Z,18.50
2019-05-18T19:38:13.042Z,18.50
2019-05-18T19:40:40.837Z,18.50
2019-05-18T19:43:08.742Z,18.40
2019-05-18T19:45:36.547Z,18.30
2019-05-18T19:48:04.397Z,18.30
2019-05-18T19:50:32.336Z,18.20
2019-05-18T19:53:01.608Z,18.20
2019-05-18T19:55:29.421Z,18.10
2019-05-18T19:58:08.187Z,18.00
2019-05-18T20:00:27.083Z,17.90
2019-05-18T20:02:54.915Z,17.90
2019-05-18T20:05:22.747Z,17.80
2019-05-18T20:07:50.573Z,17.70
2019-05-18T20:10:18.542Z,17.70
2019-05-18T20:12:46.348Z,17.70
2019-05-18T20:15:14.551Z,17.60
2019-05-18T20:17:42.398Z,17.50
2019-05-18T20:20:10.741Z,17.50
2019-05-18T20:22:38.567Z,17.40
2019-05-18T20:25:07.209Z,17.40
2019-05-18T20:27:35.155Z,17.30
2019-05-18T20:30:03.526Z,17.20
2019-05-18T20:32:31.415Z,17.20
2019-05-18T20:34:59.339Z,17.10
2019-05-18T20:37:27.175Z,17.10
2019-05-18T20:39:55.048Z,17.00
2019-05-18T20:42:22.818Z,16.90
2019-05-18T20:44:50.656Z,16.80
2019-05-18T20:47:18.499Z,16.80
2019-05-18T20:49:46.369Z,16.80
2019-05-18T20:52:14.260Z,16.70
2019-05-18T20:54:42.075Z,16.70
2019-05-18T20:57:09.877Z,16.70
2019-05-18T20:59:38.520Z,16.70
2019-05-18T21:02:06.455Z,16.60
2019-05-18T21:04:34.254Z,16.50
2019-05-18T21:07:02.076Z,16.50
2019-05-18T21:09:29.945Z,16.50
2019-05-18T21:11:57.811Z,16.40
2019-05-18T21:14:25.625Z,16.40
2019-05-18T21:16:53.429Z,16.30
2019-05-18T21:19:21.248Z,16.30
2019-05-18T21:21:49.046Z,16.30
2019-05-18T21:24:16.842Z,16.30
2019-05-18T21:26:44.649Z,16.20
2019-05-18T21:29:12.440Z,16.30
2019-05-18T21:31:40.285Z,16.20
2019-05-18T21:34:08.120Z,16.10
2019-05-18T21:36:35.924Z,16.10
2019-05-18T21:39:05.117Z,16.00
2019-05-18T21:41:33.010Z,16.00
2019-05-18T21:44:00.936Z,15.90
2019-05-18T21:46:28.809Z,15.90
2019-05-18T21:48:56.624Z,15.90
2019-05-18T21:51:24.406Z,15.80
2019-05-18T21:53:52.192Z,15.80
2019-05-18T21:56:19.976Z,15.80
2019-05-18T21:58:47.755Z,15.70
2019-05-18T22:01:15.803Z,15.70
2019-05-18T22:03:47.868Z,15.70
2019-05-18T22:06:13.353Z,15.60
2019-05-18T22:08:41.212Z,15.60
2019-05-18T22:11:09.040Z,15.60
2019-05-18T22:13:36.840Z,15.60
2019-05-18T22:16:04.692Z,15.60
2019-05-18T22:18:32.538Z,15.50
2019-05-18T22:21:00.370Z,15.60
2019-05-18T22:23:28.150Z,15.60
2019-05-18T22:25:57.134Z,15.50
2019-05-18T22:28:25.134Z,15.50
2019-05-18T22:30:52.967Z,15.50
2019-05-18T22:33:20.782Z,15.50
2019-05-18T22:35:48.600Z,15.40
2019-05-18T22:38:16.409Z,15.30
2019-05-18T22:40:44.200Z,15.30
2019-05-18T22:43:12.008Z,15.20
2019-05-18T22:45:39.790Z,15.20
2019-05-18T22:48:07.703Z,15.20
2019-05-18T22:50:35.460Z,15.10
2019-05-18T22:53:03.307Z,15.10
2019-05-18T22:55:31.064Z,15.10
2019-05-18T22:57:59.026Z,15.00
2019-05-18T23:00:26.826Z,15.00
2019-05-18T23:02:54.664Z,15.00
2019-05-18T23:05:22.459Z,14.90
2019-05-18T23:07:50.293Z,14.90
2019-05-18T23:10:18.112Z,14.90
2019-05-18T23:12:45.953Z,14.90
2019-05-18T23:15:14.058Z,14.90
2019-05-18T23:17:45.054Z,14.90
2019-05-18T23:20:13.117Z,14.80
2019-05-18T23:22:40.918Z,14.90
2019-05-18T23:25:09.029Z,14.90
2019-05-18T23:27:36.839Z,14.80
2019-05-18T23:30:04.997Z,14.80
2019-05-18T23:32:32.824Z,14.80
2019-05-18T23:35:00.723Z,14.80
2019-05-18T23:37:28.567Z,14.80
2019-05-18T23:40:00.685Z,14.70
2019-05-18T23:42:28.525Z,14.70
2019-05-18T23:44:56.332Z,14.70
2019-05-18T23:47:24.135Z,14.70
2019-05-18T23:49:52.006Z,14.70
2019-05-18T23:52:19.871Z,14.70
2019-05-18T23:54:47.673Z,14.70
2019-05-18T23:57:15.475Z,14.60
2019-05-18T23:59:43.317Z,14.60
